Time;durP1;ratioP1;P1;durP2;ratioP2;P2;SDS_P1;SDS_P2;PMS_P1;PMS_P2;Temp;Humidity;BMP_temperature;BMP_pressure;BME280_temperature;BME280_humidity;BME280_pressure;Samples;Min_cycle;Max_cycle;Signal;HPM_P1;HPM_P2
2024/01/02 00:00:07;;;;;;;;;;;;;;;;;;5091175;28;20290;-53
2024/01/02 00:02:33;;;;;;;;;;;;;;;;;;5091393;28;20671;-54
2024/01/02 00:04:59;;;;;;;;;;;;;;;;;;5090437;28;19996;-54
2024/01/02 00:07:25;;;;;;;;;;;;;;;;;;5085616;28;19912;-55
2024/01/02 00:09:51;;;;;;;;;;;;;;;;;;5085410;28;19958;-56
2024/01/02 00:12:17;;;;;;;;;;;;;;;;;;5092001;28;19920;-54
2024/01/02 00:14:43;;;;;;;;;;;;;;;;;;5084214;28;19956;-55
2024/01/02 00:17:09;;;;;;;;;;;;;;;;;;5087328;28;20294;-55
2024/01/02 00:19:35;;;;;;;;;;;;;;;;;;5092461;28;19955;-54
2024/01/02 00:22:01;;;;;;;;;;;;;;;;;;5092190;28;19918;-54
2024/01/02 00:24:26;;;;;;;;;;;;;;;;;;5083923;28;20384;-53
2024/01/02 00:26:52;;;;;;;;;;;;;;;;;;5088221;28;19956;-55
2024/01/02 00:29:18;;;;;;;;;;;;;;;;;;5087376;28;19923;-54
2024/01/02 00:31:44;;;;;;;;;;;;;;;;;;5084026;28;19919;-54
2024/01/02 00:34:10;;;;;;;;;;;;;;;;;;5084773;28;19958;-56
2024/01/02 00:36:36;;;;;;;;;;;;;;;;;;5083845;28;20005;-55
2024/01/02 00:39:02;;;;;;;;;;;;;;;;;;5083648;28;19922;-54
2024/01/02 00:41:28;;;;;;;;;;;;;;;;;;5091249;28;19916;-55
2024/01/02 00:43:54;;;;;;;;;;;;;;;;;;5091080;28;19965;-50
2024/01/02 00:46:20;;;;;;;;;;;;;;;;;;5077442;28;20411;-52
2024/01/02 00:48:46;;;;;;;;;;;;;;;;;;5089054;28;19912;-53
2024/01/02 00:51:12;;;;;;;;;;;;;;;;;;5085223;28;20325;-51
2024/01/02 00:53:38;;;;;;;;;;;;;;;;;;5092141;28;19951;-54
2024/01/02 00:56:04;;;;;;;;;;;;;;;;;;5088882;28;19920;-53
2024/01/02 00:58:30;;;;;;;;;;;;;;;;;;5091427;28;19915;-52
2024/01/02 01:00:55;;;;;;;;;;;;;;;;;;5075912;28;19909;-51
2024/01/02 01:03:21;;;;;;;;;;;;;;;;;;5090410;28;19955;-52
2024/01/02 01:05:47;;;;;;;;;;;;;;;;;;5091075;28;20410;-49
2024/01/02 01:08:13;;;;;;;;;;;;;;;;;;5090890;28;19952;-49
2024/01/02 01:10:39;;;;;;;;;;;;;;;;;;5090375;28;19912;-53
2024/01/02 01:13:05;;;;;;;;;;;;;;;;;;5083051;28;19913;-51
2024/01/02 01:15:31;;;;;;;;;;;;;;;;;;5089233;28;20027;-51
2024/01/02 01:17:57;;;;;;;;;;;;;;;;;;5092343;28;20378;-50
2024/01/02 01:20:23;;;;;;;;;;;;;;;;;;5091301;28;20011;-52
2024/01/02 01:22:49;;;;;;;;;;;;;;;;;;5090418;28;19920;-52
2024/01/02 01:25:14;;;;;;;;;;;;;;;;;;5091183;28;19959;-53
2024/01/02 01:27:40;;;;;;;;;;;;;;;;;;5089199;28;20021;-52
2024/01/02 01:30:06;;;;;;;;;;;;;;;;;;5086420;28;19962;-52
2024/01/02 01:32:32;;;;;;;;;;;;;;;;;;5090777;28;19911;-53
2024/01/02 01:34:58;;;;;;;;;;;;;;;;;;5091932;28;19912;-53
2024/01/02 01:37:24;;;;;;;;;;;;;;;;;;5077327;28;19913;-53
2024/01/02 01:39:50;;;;;;;;;;;;;;;;;;5082740;28;20390;-52
2024/01/02 01:42:16;;;;;;;;;;;;;;;;;;5084610;28;19991;-52
2024/01/02 01:44:42;;;;;;;;;;;;;;;;;;5075943;28;19913;-51
2024/01/02 01:47:08;;;;;;;;;;;;;;;;;;5084586;28;19908;-52
2024/01/02 01:49:34;;;;;;;;;;;;;;;;;;5094311;28;19980;-49
2024/01/02 01:52:00;;;;;;;;;;;;;;;;;;5087829;28;19912;-56
2024/01/02 01:54:25;;;;;;;;;;;;;;;;;;5089143;28;19947;-55
2024/01/02 01:56:52;;;;;;;;;;;;;;;;;;5086498;28;19912;-54
2024/01/02 01:59:18;;;;;;;;;;;;;;;;;;5087172;28;19916;-54
2024/01/02 02:01:44;;;;;;;;;;;;;;;;;;5081790;28;19921;-56
2024/01/02 02:04:10;;;;;;;;;;;;;;;;;;5075645;28;20380;-56
2024/01/02 02:06:36;;;;;;;;;;;;;;;;;;5080595;28;19923;-57
2024/01/02 02:09:02;;;;;;;;;;;;;;;;;;5094041;28;20010;-56
2024/01/02 02:11:28;;;;;;;;;;;;;;;;;;5090691;28;19919;-57
2024/01/02 02:13:54;;;;;;;;;;;;;;;;;;5093248;28;19912;-55
2024/01/02 02:16:20;;;;;;;;;;;;;;;;;;5095153;28;19920;-56
2024/01/02 02:18:46;;;;;;;;;;;;;;;;;;5089015;28;20011;-56
2024/01/02 02:21:12;;;;;;;;;;;;;;;;;;5088257;28;19912;-56
2024/01/02 02:23:38;;;;;;;;;;;;;;;;;;5074948;28;20338;-57
2024/01/02 02:26:04;;;;;;;;;;;;;;;;;;5089170;28;19912;-57
2024/01/02 02:28:30;;;;;;;;;;;;;;;;;;5091546;28;19975;-57
2024/01/02 02:30:56;;;;;;;;;;;;;;;;;;5088803;28;19927;-56
2024/01/02 02:33:21;;;;;;;;;;;;;;;;;;5083054;28;19912;-57
2024/01/02 02:35:47;;;;;;;;;;;;;;;;;;5082859;28;19959;-55
2024/01/02 02:38:13;;;;;;;;;;;;;;;;;;5075735;28;19970;-57
2024/01/02 02:40:39;;;;;;;;;;;;;;;;;;5092799;28;19995;-57
2024/01/02 02:43:05;;;;;;;;;;;;;;;;;;5078201;28;19931;-52
2024/01/02 02:45:33;;;;;;;;;;;;;;;;;;5088334;28;20407;-57
2024/01/02 02:47:59;;;;;;;;;;;;;;;;;;5094234;28;20325;-56
2024/01/02 02:50:24;;;;;;;;;;;;;;;;;;5088977;28;20049;-56
2024/01/02 02:52:50;;;;;;;;;;;;;;;;;;5086025;28;19943;-57
2024/01/02 02:55:16;;;;;;;;;;;;;;;;;;5094844;28;19916;-56
2024/01/02 02:57:42;;;;;;;;;;;;;;;;;;5080519;28;20007;-56
2024/01/02 03:00:09;;;;;;;;;;;;;;;;;;5073435;28;20020;-57
2024/01/02 03:02:35;;;;;;;;;;;;;;;;;;5074561;28;19913;-53
2024/01/02 03:05:01;;;;;;;;;;;;;;;;;;5074236;28;19913;-54
2024/01/02 03:07:27;;;;;;;;;;;;;;;;;;5085377;28;20003;-56
2024/01/02 03:09:53;;;;;;;;;;;;;;;;;;5087659;28;19926;-56
2024/01/02 03:12:19;;;;;;;;;;;;;;;;;;5086253;28;19916;-56
2024/01/02 03:14:44;;;;;;;;;;;;;;;;;;5093009;28;19912;-57
2024/01/02 03:17:10;;;;;;;;;;;;;;;;;;5093863;28;20098;-57
2024/01/02 03:19:36;;;;;;;;;;;;;;;;;;5093472;28;19916;-56
2024/01/02 03:22:02;;;;;;;;;;;;;;;;;;5092429;28;19939;-54
2024/01/02 03:24:28;;;;;;;;;;;;;;;;;;5093296;28;19915;-54
2024/01/02 03:26:54;;;;;;;;;;;;;;;;;;5082004;28;19955;-54
2024/01/02 03:29:21;;;;;;;;;;;;;;;;;;5089154;28;19960;-54
2024/01/02 03:31:47;;;;;;;;;;;;;;;;;;5083310;28;20375;-52
2024/01/02 03:34:13;;;;;;;;;;;;;;;;;;5093639;28;19965;-55
2024/01/02 03:36:39;;;;;;;;;;;;;;;;;;5073712;28;19995;-54
2024/01/02 03:39:05;;;;;;;;;;;;;;;;;;5073894;28;19916;-54
2024/01/02 03:41:31;;;;;;;;;;;;;;;;;;5080440;28;20363;-54
2024/01/02 03:43:57;;;;;;;;;;;;;;;;;;5084637;28;19954;-53
2024/01/02 03:46:22;;;;;;;;;;;;;;;;;;5091721;28;19920;-54
2024/01/02 03:48:48;;;;;;;;;;;;;;;;;;5092392;28;19912;-53
2024/01/02 03:51:14;;;;;;;;;;;;;;;;;;5091378;28;20316;-55
2024/01/02 03:53:40;;;;;;;;;;;;;;;;;;5092560;28;19915;-53
2024/01/02 03:56:06;;;;;;;;;;;;;;;;;;5092685;28;19984;-55
2024/01/02 03:58:32;;;;;;;;;;;;;;;;;;5088169;28;19959;-53
2024/01/02 04:00:58;;;;;;;;;;;;;;;;;;5086325;28;21045;-54
2024/01/02 04:03:24;;;;;;;;;;;;;;;;;;5092661;28;19915;-54
2024/01/02 04:05:50;;;;;;;;;;;;;;;;;;5084486;28;20357;-55
2024/01/02 04:08:16;;;;;;;;;;;;;;;;;;5091066;28;20308;-54
2024/01/02 04:10:44;;;;;;;;;;;;;;;;;;5086636;28;20315;-55
2024/01/02 04:13:10;;;;;;;;;;;;;;;;;;5082921;28;19966;-54
2024/01/02 04:15:36;;;;;;;;;;;;;;;;;;5085705;28;19963;-53
2024/01/02 04:18:02;;;;;;;;;;;;;;;;;;5081770;28;20663;-53
2024/01/02 04:20:28;;;;;;;;;;;;;;;;;;5089562;28;19912;-54
2024/01/02 04:22:55;;;;;;;;;;;;;;;;;;5075231;28;20016;-53
2024/01/02 04:25:21;;;;;;;;;;;;;;;;;;5093335;28;20314;-54
2024/01/02 04:27:47;;;;;;;;;;;;;;;;;;5087478;28;19964;-54
2024/01/02 04:30:13;;;;;;;;;;;;;;;;;;5084997;28;19922;-55
2024/01/02 04:32:39;;;;;;;;;;;;;;;;;;5082349;28;19912;-50
2024/01/02 04:35:04;;;;;;;;;;;;;;;;;;5072486;28;19912;-52
2024/01/02 04:37:30;;;;;;;;;;;;;;;;;;5087293;28;19974;-54
2024/01/02 04:39:56;;;;;;;;;;;;;;;;;;5091701;28;19916;-52
2024/01/02 04:42:23;;;;;;;;;;;;;;;;;;5092359;28;20397;-53
2024/01/02 04:44:49;;;;;;;;;;;;;;;;;;5090467;28;19912;-54
2024/01/02 04:47:15;;;;;;;;;;;;;;;;;;5087137;28;19958;-53
2024/01/02 04:49:41;;;;;;;;;;;;;;;;;;5084637;28;20357;-54
2024/01/02 04:52:07;;;;;;;;;;;;;;;;;;5076959;28;19916;-53
2024/01/02 04:54:33;;;;;;;;;;;;;;;;;;5087221;28;20410;-52
2024/01/02 04:56:59;;;;;;;;;;;;;;;;;;5072444;28;20005;-52
2024/01/02 04:59:24;;;;;;;;;;;;;;;;;;5079359;28;19912;-53
2024/01/02 05:01:51;;;;;;;;;;;;;;;;;;5090678;28;19947;-53
2024/01/02 05:04:17;;;;;;;;;;;;;;;;;;5079276;28;20372;-53
2024/01/02 05:06:43;;;;;;;;;;;;;;;;;;5085126;28;19935;-51
2024/01/02 05:09:09;;;;;;;;;;;;;;;;;;5081378;28;19952;-53
2024/01/02 05:11:34;;;;;;;;;;;;;;;;;;5089740;28;20098;-53
2024/01/02 05:14:00;;;;;;;;;;;;;;;;;;5087351;28;20364;-52
2024/01/02 05:16:27;;;;;;;;;;;;;;;;;;5084785;28;19947;-51
2024/01/02 05:18:53;;;;;;;;;;;;;;;;;;5088700;28;19938;-53
2024/01/02 05:21:19;;;;;;;;;;;;;;;;;;5090084;28;19912;-53
2024/01/02 05:23:45;;;;;;;;;;;;;;;;;;5085864;28;19912;-54
2024/01/02 05:26:11;;;;;;;;;;;;;;;;;;5095361;28;19974;-53
2024/01/02 05:28:37;;;;;;;;;;;;;;;;;;5094882;28;20319;-53
2024/01/02 05:31:03;;;;;;;;;;;;;;;;;;5086557;28;19947;-54
2024/01/02 05:33:28;;;;;;;;;;;;;;;;;;5094821;28;19920;-56
2024/01/02 05:35:54;;;;;;;;;;;;;;;;;;5093061;28;19938;-52
2024/01/02 05:38:20;;;;;;;;;;;;;;;;;;5095315;28;19959;-53
2024/01/02 05:40:46;;;;;;;;;;;;;;;;;;5089195;28;20324;-54
2024/01/02 05:43:12;;;;;;;;;;;;;;;;;;5085455;28;19951;-55
2024/01/02 05:45:38;;;;;;;;;;;;;;;;;;5080130;28;19912;-54
2024/01/02 05:48:04;;;;;;;;;;;;;;;;;;5090394;28;20380;-53
2024/01/02 05:50:30;;;;;;;;;;;;;;;;;;5087911;28;19920;-53
2024/01/02 05:52:56;;;;;;;;;;;;;;;;;;5094989;28;19916;-54
2024/01/02 05:55:22;;;;;;;;;;;;;;;;;;5094329;28;19951;-56
2024/01/02 05:57:48;;;;;;;;;;;;;;;;;;5083217;28;19970;-54
2024/01/02 06:00:14;;;;;;;;;;;;;;;;;;5084432;28;19963;-55
2024/01/02 06:02:40;;;;;;;;;;;;;;;;;;5085188;28;20000;-54
2024/01/02 06:05:06;;;;;;;;;;;;;;;;;;5088256;28;19916;-54
2024/01/02 06:07:31;;;;;;;;;;;;;;;;;;5094894;28;20016;-53
2024/01/02 06:09:58;;;;;;;;;;;;;;;;;;5085477;28;19919;-53
2024/01/02 06:12:24;;;;;;;;;;;;;;;;;;5083479;28;19917;-53
2024/01/02 06:14:50;;;;;;;;;;;;;;;;;;5091170;28;19961;-53
2024/01/02 06:17:15;;;;;;;;;;;;;;;;;;5094343;28;19916;-54
2024/01/02 06:19:41;;;;;;;;;;;;;;;;;;5093047;28;19912;-54
2024/01/02 06:22:07;;;;;;;;;;;;;;;;;;5083654;28;19955;-53
2024/01/02 06:24:33;;;;;;;;;;;;;;;;;;5089876;28;19957;-52
2024/01/02 06:26:59;;;;;;;;;;;;;;;;;;5091309;28;19954;-53
2024/01/02 06:29:25;;;;;;;;;;;;;;;;;;5078409;28;19925;-54
2024/01/02 06:31:51;;;;;;;;;;;;;;;;;;5089880;28;20372;-54
2024/01/02 06:34:17;;;;;;;;;;;;;;;;;;5078506;28;19916;-53
2024/01/02 06:36:43;;;;;;;;;;;;;;;;;;5093450;28;20364;-54
2024/01/02 06:39:09;;;;;;;;;;;;;;;;;;5078891;28;19919;-55
2024/01/02 06:41:35;;;;;;;;;;;;;;;;;;5086958;28;19919;-57
2024/01/02 06:44:00;;;;;;;;;;;;;;;;;;5085749;28;19963;-53
2024/01/02 06:46:26;;;;;;;;;;;;;;;;;;5089543;28;19916;-56
2024/01/02 06:48:52;;;;;;;;;;;;;;;;;;5089747;28;19918;-55
2024/01/02 06:51:18;;;;;;;;;;;;;;;;;;5088658;28;19963;-57
2024/01/02 06:53:44;;;;;;;;;;;;;;;;;;5093769;28;19943;-53
2024/01/02 06:56:10;;;;;;;;;;;;;;;;;;5094537;28;20283;-53
2024/01/02 06:58:36;;;;;;;;;;;;;;;;;;5086082;28;19931;-53
2024/01/02 07:01:02;;;;;;;;;;;;;;;;;;5092675;28;19912;-53
2024/01/02 07:03:28;;;;;;;;;;;;;;;;;;5092236;28;19956;-51
2024/01/02 07:05:54;;;;;;;;;;;;;;;;;;5092257;28;19924;-54
2024/01/02 07:08:21;;;;;;;;;;;;;;;;;;5089966;28;19913;-53
2024/01/02 07:10:47;;;;;;;;;;;;;;;;;;5085748;28;20295;-53
2024/01/02 07:13:13;;;;;;;;;;;;;;;;;;5087360;28;19951;-51
2024/01/02 07:15:39;;;;;;;;;;;;;;;;;;5078568;28;19919;-54
2024/01/02 07:18:05;;;;;;;;;;;;;;;;;;5093343;28;19920;-50
2024/01/02 07:20:31;;;;;;;;;;;;;;;;;;5092096;28;19919;-52
2024/01/02 07:22:57;;;;;;;;;;;;;;;;;;5087893;28;20019;-53
2024/01/02 07:25:23;;;;;;;;;;;;;;;;;;5086753;28;19912;-50
2024/01/02 07:27:48;;;;;;;;;;;;;;;;;;5093086;28;19924;-54
2024/01/02 07:30:14;;;;;;;;;;;;;;;;;;5087805;28;20008;-54
2024/01/02 07:32:40;;;;;;;;;;;;;;;;;;5088219;28;19912;-53
2024/01/02 07:35:06;;;;;;;;;;;;;;;;;;5092017;28;20406;-53
2024/01/02 07:37:33;;;;;;;;;;;;;;;;;;5092884;28;19955;-53
2024/01/02 07:39:59;;;;;;;;;;;;;;;;;;5089843;28;20333;-52
2024/01/02 07:42:25;;;;;;;;;;;;;;;;;;5090702;28;20010;-52
2024/01/02 07:44:51;;;;;;;;;;;;;;;;;;5088059;28;19962;-52
2024/01/02 07:47:17;;;;;;;;;;;;;;;;;;5091497;28;20329;-52
2024/01/02 07:49:43;;;;;;;;;;;;;;;;;;5093127;28;19915;-55
2024/01/02 07:52:09;;;;;;;;;;;;;;;;;;5078348;28;19947;-54
2024/01/02 07:54:34;;;;;;;;;;;;;;;;;;5091316;28;19915;-52
2024/01/02 07:57:00;;;;;;;;;;;;;;;;;;5083626;28;20015;-53
2024/01/02 07:59:26;;;;;;;;;;;;;;;;;;5092461;28;20451;-55
2024/01/02 08:01:52;;;;;;;;;;;;;;;;;;5089971;28;19916;-53
2024/01/02 08:04:18;;;;;;;;;;;;;;;;;;5092978;28;20284;-54
2024/01/02 08:06:44;;;;;;;;;;;;;;;;;;5087350;28;19963;-51
2024/01/02 08:09:10;;;;;;;;;;;;;;;;;;5090086;28;19934;-52
2024/01/02 08:11:37;;;;;;;;;;;;;;;;;;5086097;28;20379;-53
2024/01/02 08:14:03;;;;;;;;;;;;;;;;;;5091068;28;19912;-55
2024/01/02 08:16:29;;;;;;;;;;;;;;;;;;5092095;28;20371;-55
2024/01/02 08:18:54;;;;;;;;;;;;;;;;;;5090805;28;19920;-52
2024/01/02 08:21:20;;;;;;;;;;;;;;;;;;5090100;28;19916;-53
2024/01/02 08:23:47;;;;;;;;;;;;;;;;;;5088071;28;20368;-55
2024/01/02 08:26:13;;;;;;;;;;;;;;;;;;5086504;28;19923;-51
2024/01/02 08:28:39;;;;;;;;;;;;;;;;;;5074375;28;20380;-53
2024/01/02 08:31:05;;;;;;;;;;;;;;;;;;5090865;28;19947;-50
2024/01/02 08:33:31;;;;;;;;;;;;;;;;;;5086756;28;19974;-52
2024/01/02 08:35:57;;;;;;;;;;;;;;;;;;5089217;28;20391;-51
2024/01/02 08:38:23;;;;;;;;;;;;;;;;;;5090381;28;20290;-53
2024/01/02 08:40:49;;;;;;;;;;;;;;;;;;5089086;28;19998;-52
2024/01/02 08:43:16;;;;;;;;;;;;;;;;;;5085624;28;20380;-54
2024/01/02 08:45:42;;;;;;;;;;;;;;;;;;5084088;28;19955;-52
2024/01/02 08:48:08;;;;;;;;;;;;;;;;;;5074372;28;19995;-53
2024/01/02 08:50:34;;;;;;;;;;;;;;;;;;5088242;28;20011;-51
2024/01/02 08:53:00;;;;;;;;;;;;;;;;;;5091729;28;20307;-53
2024/01/02 08:55:26;;;;;;;;;;;;;;;;;;5088619;28;19920;-54
2024/01/02 08:57:52;;;;;;;;;;;;;;;;;;5085902;28;20283;-53
2024/01/02 09:00:18;;;;;;;;;;;;;;;;;;5086767;28;19945;-53
2024/01/02 09:02:44;;;;;;;;;;;;;;;;;;5085154;28;19916;-54
2024/01/02 09:05:10;;;;;;;;;;;;;;;;;;5089207;28;19951;-53
2024/01/02 09:07:36;;;;;;;;;;;;;;;;;;5089935;28;19916;-54
2024/01/02 09:10:02;;;;;;;;;;;;;;;;;;5089425;28;19943;-55
2024/01/02 09:12:30;;;;;;;;;;;;;;;;;;5086994;28;19916;-55
2024/01/02 09:14:56;;;;;;;;;;;;;;;;;;5090695;28;19919;-53
2024/01/02 09:17:21;;;;;;;;;;;;;;;;;;5088764;28;20403;-55
2024/01/02 09:19:47;;;;;;;;;;;;;;;;;;5087761;28;19957;-54
2024/01/02 09:22:13;;;;;;;;;;;;;;;;;;5089281;28;19908;-54
2024/01/02 09:24:39;;;;;;;;;;;;;;;;;;5081281;28;19913;-53
2024/01/02 09:27:06;;;;;;;;;;;;;;;;;;5075573;28;20050;-53
2024/01/02 09:29:32;;;;;;;;;;;;;;;;;;5077471;28;19966;-54
2024/01/02 09:31:57;;;;;;;;;;;;;;;;;;5076757;28;20305;-56
2024/01/02 09:34:23;;;;;;;;;;;;;;;;;;5079654;28;19913;-54
2024/01/02 09:36:49;;;;;;;;;;;;;;;;;;5075640;28;19959;-54
2024/01/02 09:39:15;;;;;;;;;;;;;;;;;;5080022;28;19927;-53
2024/01/02 09:41:41;;;;;;;;;;;;;;;;;;5076981;28;19920;-54
2024/01/02 09:44:07;;;;;;;;;;;;;;;;;;5086084;28;20464;-53
2024/01/02 09:46:33;;;;;;;;;;;;;;;;;;5079227;28;19955;-54
2024/01/02 09:48:59;;;;;;;;;;;;;;;;;;5080804;28;20019;-51
2024/01/02 09:51:25;;;;;;;;;;;;;;;;;;5075165;28;20010;-53
2024/01/02 09:53:51;;;;;;;;;;;;;;;;;;5082807;28;19959;-55
2024/01/02 09:56:17;;;;;;;;;;;;;;;;;;5079668;28;19923;-53
2024/01/02 09:58:43;;;;;;;;;;;;;;;;;;5083291;28;19916;-54
2024/01/02 10:01:09;;;;;;;;;;;;;;;;;;5085254;28;20391;-53
2024/01/02 10:03:35;;;;;;;;;;;;;;;;;;5080139;28;19989;-55
2024/01/02 10:06:01;;;;;;;;;;;;;;;;;;5084563;28;19962;-55
2024/01/02 10:08:27;;;;;;;;;;;;;;;;;;5084280;28;19920;-54
2024/01/02 10:10:52;;;;;;;;;;;;;;;;;;5090799;28;19969;-55
2024/01/02 10:13:18;;;;;;;;;;;;;;;;;;5088474;28;19920;-54
2024/01/02 10:15:44;;;;;;;;;;;;;;;;;;5090414;28;20053;-54
2024/01/02 10:18:10;;;;;;;;;;;;;;;;;;5087766;28;19966;-54
2024/01/02 10:20:36;;;;;;;;;;;;;;;;;;5077821;28;19916;-54
2024/01/02 10:23:02;;;;;;;;;;;;;;;;;;5082214;28;20367;-54
2024/01/02 10:25:28;;;;;;;;;;;;;;;;;;5092257;28;20387;-54
2024/01/02 10:27:54;;;;;;;;;;;;;;;;;;5086896;28;19967;-54
2024/01/02 10:30:21;;;;;;;;;;;;;;;;;;5086701;28;19916;-55
2024/01/02 10:32:47;;;;;;;;;;;;;;;;;;5087665;28;19913;-54
2024/01/02 10:35:13;;;;;;;;;;;;;;;;;;5089526;28;19959;-55
2024/01/02 10:37:40;;;;;;;;;;;;;;;;;;5091499;28;19971;-54
2024/01/02 10:40:07;;;;;;;;;;;;;;;;;;5092508;28;20322;-53
2024/01/02 10:42:33;;;;;;;;;;;;;;;;;;5091406;28;19913;-55
2024/01/02 10:44:59;;;;;;;;;;;;;;;;;;5088450;28;20082;-52
2024/01/02 10:47:25;;;;;;;;;;;;;;;;;;5081585;28;20661;-53
2024/01/02 10:49:51;;;;;;;;;;;;;;;;;;5091500;28;19912;-55
2024/01/02 10:52:18;;;;;;;;;;;;;;;;;;5085522;28;20307;-54
2024/01/02 10:54:44;;;;;;;;;;;;;;;;;;5087755;28;19916;-54
2024/01/02 10:57:10;;;;;;;;;;;;;;;;;;5088139;28;20356;-53
2024/01/02 10:59:36;;;;;;;;;;;;;;;;;;5085403;28;19920;-53
2024/01/02 11:02:03;;;;;;;;;;;;;;;;;;5086349;28;20299;-54
2024/01/02 11:04:31;;;;;;;;;;;;;;;;;;5088727;28;20576;-53
2024/01/02 11:06:57;;;;;;;;;;;;;;;;;;5090244;28;20360;-55
2024/01/02 11:09:26;;;;;;;;;;;;;;;;;;5092187;28;20326;-53
2024/01/02 11:11:52;;;;;;;;;;;;;;;;;;5087401;28;20283;-55
2024/01/02 11:14:18;;;;;;;;;;;;;;;;;;5081695;28;19943;-56
2024/01/02 11:16:45;;;;;;;;;;;;;;;;;;5090334;28;19924;-54
2024/01/02 11:19:11;;;;;;;;;;;;;;;;;;5090941;28;19923;-54
2024/01/02 11:21:38;;;;;;;;;;;;;;;;;;5081938;28;20340;-54
2024/01/02 11:24:04;;;;;;;;;;;;;;;;;;5082443;28;20007;-54
2024/01/02 11:26:30;;;;;;;;;;;;;;;;;;5083131;28;20317;-54
2024/01/02 11:28:56;;;;;;;;;;;;;;;;;;5079838;28;19924;-56
2024/01/02 11:31:22;;;;;;;;;;;;;;;;;;5081993;28;19986;-55
2024/01/02 11:33:48;;;;;;;;;;;;;;;;;;5091682;28;19952;-53
2024/01/02 11:36:14;;;;;;;;;;;;;;;;;;5085495;28;19919;-52
2024/01/02 11:38:39;;;;;;;;;;;;;;;;;;5083403;28;19920;-51
2024/01/02 11:41:05;;;;;;;;;;;;;;;;;;5083793;28;19947;-53
2024/01/02 11:43:32;;;;;;;;;;;;;;;;;;5079033;28;19923;-53
2024/01/02 11:45:58;;;;;;;;;;;;;;;;;;5089086;28;19950;-54
2024/01/02 11:48:23;;;;;;;;;;;;;;;;;;5090137;28;20261;-53
2024/01/02 11:50:50;;;;;;;;;;;;;;;;;;5085819;28;19952;-51
2024/01/02 11:53:16;;;;;;;;;;;;;;;;;;5087106;28;19912;-53
2024/01/02 11:55:42;;;;;;;;;;;;;;;;;;5090008;28;19947;-53
2024/01/02 11:58:08;;;;;;;;;;;;;;;;;;5088011;28;20072;-53
2024/01/02 12:00:34;;;;;;;;;;;;;;;;;;5077382;28;19954;-53
2024/01/02 12:03:00;;;;;;;;;;;;;;;;;;5085460;28;20390;-54
2024/01/02 12:05:26;;;;;;;;;;;;;;;;;;5092841;28;19915;-53
2024/01/02 12:07:52;;;;;;;;;;;;;;;;;;5088611;28;20292;-53
2024/01/02 12:10:19;;;;;;;;;;;;;;;;;;5084894;28;19955;-51
2024/01/02 12:12:45;;;;;;;;;;;;;;;;;;5081146;28;19920;-53
2024/01/02 12:15:10;;;;;;;;;;;;;;;;;;5078689;28;19958;-53
2024/01/02 12:17:36;;;;;;;;;;;;;;;;;;5085925;28;20403;-51
2024/01/02 12:20:04;;;;;;;;;;;;;;;;;;5082960;28;19927;-52
2024/01/02 12:22:30;;;;;;;;;;;;;;;;;;5082182;28;20295;-54
2024/01/02 12:24:56;;;;;;;;;;;;;;;;;;5084408;28;19912;-53
2024/01/02 12:27:23;;;;;;;;;;;;;;;;;;5081018;28;20010;-54
2024/01/02 12:29:51;;;;;;;;;;;;;;;;;;5087729;28;19962;-54
2024/01/02 12:32:17;;;;;;;;;;;;;;;;;;5089946;28;19926;-54
2024/01/02 12:34:43;;;;;;;;;;;;;;;;;;5092300;28;19935;-56
2024/01/02 12:37:09;;;;;;;;;;;;;;;;;;5092068;28;19955;-56
2024/01/02 12:39:35;;;;;;;;;;;;;;;;;;5090687;28;19908;-56
2024/01/02 12:42:01;;;;;;;;;;;;;;;;;;5089645;28;19943;-57
2024/01/02 12:44:29;;;;;;;;;;;;;;;;;;5086688;28;20390;-57
2024/01/02 12:46:55;;;;;;;;;;;;;;;;;;5092129;28;20007;-56
2024/01/02 12:49:21;;;;;;;;;;;;;;;;;;5091717;28;19959;-57
2024/01/02 12:51:47;;;;;;;;;;;;;;;;;;5092141;28;19908;-57
2024/01/02 12:54:13;;;;;;;;;;;;;;;;;;5092092;28;20318;-53
2024/01/02 12:56:39;;;;;;;;;;;;;;;;;;5081171;28;19916;-52
2024/01/02 12:59:08;;;;;;;;;;;;;;;;;;5090264;28;19959;-61
2024/01/02 13:01:34;;;;;;;;;;;;;;;;;;5091694;28;19915;-57
2024/01/02 13:04:00;;;;;;;;;;;;;;;;;;5092052;28;19944;-57
2024/01/02 13:06:26;;;;;;;;;;;;;;;;;;5091610;28;20371;-55
2024/01/02 13:08:52;;;;;;;;;;;;;;;;;;5091665;28;20564;-57
2024/01/02 13:11:19;;;;;;;;;;;;;;;;;;5089558;28;20374;-54
2024/01/02 13:13:45;;;;;;;;;;;;;;;;;;5088164;28;20034;-56
2024/01/02 13:16:11;;;;;;;;;;;;;;;;;;5087192;28;20015;-58
2024/01/02 13:18:37;;;;;;;;;;;;;;;;;;5091723;28;19989;-55
2024/01/02 13:21:03;;;;;;;;;;;;;;;;;;5091079;28;20011;-54
2024/01/02 13:23:28;;;;;;;;;;;;;;;;;;5089672;28;20253;-53
2024/01/02 13:25:54;;;;;;;;;;;;;;;;;;5090220;28;20378;-55
2024/01/02 13:28:20;;;;;;;;;;;;;;;;;;5089037;28;20007;-54
2024/01/02 13:30:47;;;;;;;;;;;;;;;;;;5085984;28;20383;-55
2024/01/02 13:33:13;;;;;;;;;;;;;;;;;;5091485;28;20370;-55
2024/01/02 13:35:40;;;;;;;;;;;;;;;;;;5091466;28;19908;-55
2024/01/02 13:38:06;;;;;;;;;;;;;;;;;;5091113;28;20019;-55
2024/01/02 13:40:32;;;;;;;;;;;;;;;;;;5090637;28;20085;-55
2024/01/02 13:42:58;;;;;;;;;;;;;;;;;;5092225;28;19915;-52
2024/01/02 13:45:25;;;;;;;;;;;;;;;;;;5087950;28;20308;-50
2024/01/02 13:47:51;;;;;;;;;;;;;;;;;;5091177;28;19912;-49
2024/01/02 13:50:17;;;;;;;;;;;;;;;;;;5094841;28;20289;-48
2024/01/02 13:52:45;;;;;;;;;;;;;;;;;;5094152;28;19995;-51
2024/01/02 13:55:10;;;;;;;;;;;;;;;;;;5094639;28;19908;-48
2024/01/02 13:57:36;;;;;;;;;;;;;;;;;;5094379;28;20317;-48
2024/01/02 14:00:02;;;;;;;;;;;;;;;;;;5092601;28;19912;-54
2024/01/02 14:02:28;;;;;;;;;;;;;;;;;;5093671;28;19951;-50
2024/01/02 14:04:54;;;;;;;;;;;;;;;;;;5094421;28;20047;-48
2024/01/02 14:07:20;;;;;;;;;;;;;;;;;;5092367;28;19912;-51
2024/01/02 14:09:46;;;;;;;;;;;;;;;;;;5089351;28;19923;-50
2024/01/02 14:12:13;;;;;;;;;;;;;;;;;;5092914;28;19916;-50
2024/01/02 14:14:39;;;;;;;;;;;;;;;;;;5094032;28;19962;-50
2024/01/02 14:17:05;;;;;;;;;;;;;;;;;;5087545;28;19916;-49
2024/01/02 14:19:31;;;;;;;;;;;;;;;;;;5089393;28;19912;-49
2024/01/02 14:21:57;;;;;;;;;;;;;;;;;;5094942;28;19908;-52
2024/01/02 14:24:23;;;;;;;;;;;;;;;;;;5094197;28;20406;-51
2024/01/02 14:26:49;;;;;;;;;;;;;;;;;;5094794;28;19909;-50
2024/01/02 14:29:15;;;;;;;;;;;;;;;;;;5092646;28;20300;-52
2024/01/02 14:31:41;;;;;;;;;;;;;;;;;;5082190;28;19980;-52
2024/01/02 14:34:07;;;;;;;;;;;;;;;;;;5092502;28;19912;-49
2024/01/02 14:36:33;;;;;;;;;;;;;;;;;;5094097;28;19979;-50
2024/01/02 14:38:59;;;;;;;;;;;;;;;;;;5092545;28;20027;-52
2024/01/02 14:41:25;;;;;;;;;;;;;;;;;;5092422;28;20430;-50
2024/01/02 14:43:50;;;;;;;;;;;;;;;;;;5086778;28;19909;-52
2024/01/02 14:46:16;;;;;;;;;;;;;;;;;;5093826;28;20409;-52
2024/01/02 14:48:42;;;;;;;;;;;;;;;;;;5090733;28;19967;-50
2024/01/02 14:51:08;;;;;;;;;;;;;;;;;;5085727;28;19918;-52
2024/01/02 14:53:35;;;;;;;;;;;;;;;;;;5091915;28;19917;-52
2024/01/02 14:56:01;;;;;;;;;;;;;;;;;;5074553;28;19935;-53
2024/01/02 14:58:27;;;;;;;;;;;;;;;;;;5088789;28;19916;-53
2024/01/02 15:00:52;;;;;;;;;;;;;;;;;;5082653;28;19919;-53
2024/01/02 15:03:18;;;;;;;;;;;;;;;;;;5092884;28;19916;-51
2024/01/02 15:05:44;;;;;;;;;;;;;;;;;;5087308;28;20368;-49
2024/01/02 15:08:10;;;;;;;;;;;;;;;;;;5094550;28;19991;-50
2024/01/02 15:10:36;;;;;;;;;;;;;;;;;;5084876;28;20294;-52
2024/01/02 15:13:02;;;;;;;;;;;;;;;;;;5087330;28;19951;-49
2024/01/02 15:15:28;;;;;;;;;;;;;;;;;;5090406;28;19957;-50
2024/01/02 15:17:54;;;;;;;;;;;;;;;;;;5093173;28;19923;-51
2024/01/02 15:20:20;;;;;;;;;;;;;;;;;;5093417;28;19944;-51
2024/01/02 15:22:46;;;;;;;;;;;;;;;;;;5094403;28;19908;-52
2024/01/02 15:25:12;;;;;;;;;;;;;;;;;;5094108;28;19962;-50
2024/01/02 15:27:38;;;;;;;;;;;;;;;;;;5093441;28;20481;-49
2024/01/02 15:30:04;;;;;;;;;;;;;;;;;;5092629;28;20006;-50
2024/01/02 15:32:30;;;;;;;;;;;;;;;;;;5093474;28;20356;-49
2024/01/02 15:34:56;;;;;;;;;;;;;;;;;;5093440;28;19923;-51
2024/01/02 15:37:24;;;;;;;;;;;;;;;;;;5090153;28;19923;-50
2024/01/02 15:39:50;;;;;;;;;;;;;;;;;;5088996;28;19912;-51
2024/01/02 15:42:16;;;;;;;;;;;;;;;;;;5091746;28;19966;-50
2024/01/02 15:44:42;;;;;;;;;;;;;;;;;;5088940;28;19947;-50
2024/01/02 15:47:11;;;;;;;;;;;;;;;;;;5087960;28;19912;-52
2024/01/02 15:49:37;;;;;;;;;;;;;;;;;;5092353;28;20004;-48
2024/01/02 15:52:06;;;;;;;;;;;;;;;;;;5092017;28;19962;-50
2024/01/02 15:54:32;;;;;;;;;;;;;;;;;;5083247;28;19912;-49
2024/01/02 15:56:58;;;;;;;;;;;;;;;;;;5091924;28;20385;-49
2024/01/02 15:59:28;;;;;;;;;;;;;;;;;;5079906;28;19927;-51
2024/01/02 16:01:54;;;;;;;;;;;;;;;;;;5081159;28;19966;-53
2024/01/02 16:04:20;;;;;;;;;;;;;;;;;;5083367;28;19970;-53
2024/01/02 16:06:46;;;;;;;;;;;;;;;;;;5081708;28;19938;-54
2024/01/02 16:09:12;;;;;;;;;;;;;;;;;;5083013;28;19913;-53
2024/01/02 16:11:37;;;;;;;;;;;;;;;;;;5085057;28;20337;-50
2024/01/02 16:14:04;;;;;;;;;;;;;;;;;;5079145;28;19999;-50
2024/01/02 16:16:30;;;;;;;;;;;;;;;;;;5081350;28;19916;-51
2024/01/02 16:18:56;;;;;;;;;;;;;;;;;;5083862;28;19982;-50
2024/01/02 16:21:22;;;;;;;;;;;;;;;;;;5078092;28;20388;-50
2024/01/02 16:23:47;;;;;;;;;;;;;;;;;;5085265;28;19912;-52
2024/01/02 16:26:14;;;;;;;;;;;;;;;;;;5085671;28;19955;-52
2024/01/02 16:28:40;;;;;;;;;;;;;;;;;;5086300;28;20242;-52
2024/01/02 16:31:05;;;;;;;;;;;;;;;;;;5086372;28;19991;-49
2024/01/02 16:33:32;;;;;;;;;;;;;;;;;;5079858;28;19912;-52
2024/01/02 16:35:58;;;;;;;;;;;;;;;;;;5086816;28;19920;-52